River Kern, California
Current Conditions -  °F | °C
As of 8:56 AM on Thursday 30 Oct 2014 (Local Time) from KNID Reporting Station
Scattered Clouds Scattered Clouds  
Wind Chill: 58°   Ceiling: Unl
Heat Index: 58°   Visibility: 10mi
Dew Point: 18°   Wind: 0mph
Humidity: 21%   Direction: NA
Pressure: 30.09"   Gusts: NA
Location:  35.8452°N, 118.355°W
Report Text: KNID 301556Z AUTO 00000KT 10SM FEW250 SCT300 14/M08 A3009 RMK AO2 SLP184 T01441078 $
Loading
Personal Weather Stations






























Interactive Weather Map
Tropical Storm Tracking
New forecast layout! Learn more

10-Day Weather Forecast

Advertisements
Track Severe Weather on mobile